Time,TemperatureF,DewpointF,PressureIn,WindDirection,WindDirectionDegrees,WindSpeedMPH,WindSpeedGustMPH,Humidity,HourlyPrecipIn,Conditions,Clouds,dailyrainin,SoftwareType,DateUTC
2013-02-25 00:03:00,34.0,27.8,30.12,North,0,0.0,-999.0,78,0.00,Cloudy,,0.04,Open2300\PHP-WU,2013-02-25 05:03:00,
2013-02-25 00:05:00,33.4,27.2,30.12,North,0,0.0,-999.0,78,0.00,Cloudy,,0.04,Open2300\PHP-WU,2013-02-25 05:05:00,
2013-02-25 00:07:00,33.4,27.6,30.12,North,0,0.0,-999.0,79,0.00,Cloudy,,0.04,Open2300\PHP-WU,2013-02-25 05:07:00,
2013-02-25 00:13:00,33.1,27.2,30.12,North,0,0.0,-999.0,79,0.00,Cloudy,,0.04,Open2300\PHP-WU,2013-02-25 05:13:00,
2013-02-25 00:19:00,32.5,26.8,30.12,North,0,0.0,-999.0,79,0.00,Cloudy,,0.04,Open2300\PHP-WU,2013-02-25 05:19:00,
2013-02-25 00:25:00,32.4,26.9,30.12,North,0,0.0,-999.0,80,0.00,Cloudy,,0.04,Open2300\PHP-WU,2013-02-25 05:25:00,
2013-02-25 00:31:00,32.2,26.8,30.12,North,0,0.0,-999.0,80,0.00,Cloudy,,0.04,Open2300\PHP-WU,2013-02-25 05:31:00,
2013-02-25 00:38:00,32.2,27.1,30.13,North,0,0.0,-999.0,81,0.00,Cloudy,,0.04,Open2300\PHP-WU,2013-02-25 05:38:00,
2013-02-25 00:43:00,31.8,26.7,30.12,North,0,0.0,-999.0,81,0.00,Cloudy,,0.04,Open2300\PHP-WU,2013-02-25 05:43:00,
2013-02-25 00:49:00,31.8,26.7,30.13,North,0,0.0,-999.0,81,0.00,Cloudy,,0.04,Open2300\PHP-WU,2013-02-25 05:49:00,
2013-02-25 00:55:00,31.8,26.7,30.13,North,0,0.0,-999.0,81,0.00,Cloudy,,0.04,Open2300\PHP-WU,2013-02-25 05:55:00,
2013-02-25 01:01:00,31.8,26.7,30.13,North,0,0.0,-999.0,81,0.00,Cloudy,,0.04,Open2300\PHP-WU,2013-02-25 06:01:00,
2013-02-25 01:07:00,31.8,27.0,30.14,North,0,0.0,-999.0,82,0.00,Cloudy,,0.04,Open2300\PHP-WU,2013-02-25 06:07:00,
2013-02-25 01:13:00,32.5,27.7,30.13,NNE,22,0.0,-999.0,82,0.00,Cloudy,,0.04,Open2300\PHP-WU,2013-02-25 06:13:00,
2013-02-25 01:19:00,34.2,28.6,30.14,North,0,0.0,-999.0,80,0.00,Cloudy,,0.04,Open2300\PHP-WU,2013-02-25 06:19:00,
2013-02-25 01:25:00,35.8,28.9,30.14,North,0,0.0,-999.0,76,0.00,Cloudy,,0.04,Open2300\PHP-WU,2013-02-25 06:25:00,
2013-02-25 01:32:00,37.4,28.9,30.14,North,0,0.0,-999.0,71,0.00,Cloudy,,0.04,Open2300\PHP-WU,2013-02-25 06:32:00,
2013-02-25 01:37:00,38.7,28.2,30.14,ENE,67,0.0,-999.0,66,0.00,Cloudy,,0.04,Open2300\PHP-WU,2013-02-25 06:37:00,
2013-02-25 01:43:00,39.4,28.1,30.14,North,0,2.9,-999.0,64,0.00,Cloudy,,0.04,Open2300\PHP-WU,2013-02-25 06:43:00,
2013-02-25 01:49:00,39.4,28.1,30.15,NE,45,0.0,-999.0,64,0.00,Cloudy,,0.04,Open2300\PHP-WU,2013-02-25 06:49:00,
2013-02-25 01:55:00,39.4,27.7,30.15,NNE,22,0.0,-999.0,63,0.00,Cloudy,,0.04,Open2300\PHP-WU,2013-02-25 06:55:00,
2013-02-25 02:01:00,39.4,27.7,30.15,ESE,112,0.0,-999.0,63,0.00,Cloudy,,0.04,Open2300\PHP-WU,2013-02-25 07:01:00,
2013-02-25 02:07:00,38.8,27.6,30.16,NE,45,0.0,-999.0,64,0.00,Cloudy,,0.04,Open2300\PHP-WU,2013-02-25 07:07:00,
2013-02-25 02:13:00,38.5,27.3,30.16,North,0,0.0,-999.0,64,0.00,Cloudy,,0.04,Open2300\PHP-WU,2013-02-25 07:13:00,
2013-02-25 02:19:00,38.1,27.3,30.16,NNE,22,0.0,-999.0,65,0.00,Cloudy,,0.04,Open2300\PHP-WU,2013-02-25 07:19:00,
2013-02-25 02:25:00,38.1,27.3,30.16,North,0,0.0,-999.0,65,0.00,Cloudy,,0.04,Open2300\PHP-WU,2013-02-25 07:25:00,
2013-02-25 02:31:00,37.8,27.4,30.16,NE,45,0.0,-999.0,66,0.00,Cloudy,,0.04,Open2300\PHP-WU,2013-02-25 07:31:00,
2013-02-25 02:37:00,37.6,27.2,30.16,ENE,67,0.0,-999.0,66,0.00,Cloudy,,0.04,Open2300\PHP-WU,2013-02-25 07:37:00,
2013-02-25 02:43:00,37.2,27.3,30.17,NE,45,0.0,-999.0,67,0.00,Cloudy,,0.04,Open2300\PHP-WU,2013-02-25 07:43:00,
2013-02-25 02:49:00,36.7,27.1,30.16,NW,315,0.0,-999.0,68,0.00,Cloudy,,0.04,Open2300\PHP-WU,2013-02-25 07:49:00,
2013-02-25 02:55:00,36.5,26.6,30.17,North,0,0.0,-999.0,67,0.00,Cloudy,,0.04,Open2300\PHP-WU,2013-02-25 07:55:00,
2013-02-25 03:01:00,36.5,26.2,30.16,NE,45,0.0,-999.0,66,0.00,Cloudy,,0.00,Open2300\PHP-WU,2013-02-25 08:01:00,
2013-02-25 03:07:00,36.3,25.7,30.16,NNE,22,0.0,-999.0,65,0.00,Cloudy,,0.00,Open2300\PHP-WU,2013-02-25 08:07:00,
2013-02-25 03:13:00,36.3,25.7,30.16,North,0,0.0,-999.0,65,0.00,Cloudy,,0.00,Open2300\PHP-WU,2013-02-25 08:13:00,
2013-02-25 03:19:00,36.0,25.3,30.15,NE,45,0.0,-999.0,65,0.00,Cloudy,,0.00,Open2300\PHP-WU,2013-02-25 08:19:00,
2013-02-25 03:25:00,35.8,25.5,30.15,NNW,337,0.0,-999.0,66,0.00,Cloudy,,0.00,Open2300\PHP-WU,2013-02-25 08:25:00,
2013-02-25 03:31:00,35.4,24.8,30.15,North,0,0.0,-999.0,65,0.00,Cloudy,,0.00,Open2300\PHP-WU,2013-02-25 08:31:00,
2013-02-25 03:37:00,35.4,24.4,30.15,ENE,67,0.0,-999.0,64,0.00,Cloudy,,0.00,Open2300\PHP-WU,2013-02-25 08:37:00,
2013-02-25 03:43:00,35.2,24.3,30.16,West,270,0.0,-999.0,64,0.00,Cloudy,,0.00,Open2300\PHP-WU,2013-02-25 08:43:00,
2013-02-25 03:49:00,35.1,24.1,30.17,SE,135,0.0,-999.0,64,0.00,Cloudy,,0.00,Open2300\PHP-WU,2013-02-25 08:49:00,
2013-02-25 03:55:00,34.9,23.9,30.16,NNW,337,0.0,-999.0,64,0.00,Cloudy,,0.00,Open2300\PHP-WU,2013-02-25 08:55:00,
2013-02-25 04:03:00,34.9,23.9,30.17,North,0,0.0,-999.0,64,0.00,Cloudy,,0.00,Open2300\PHP-WU,2013-02-25 09:03:00,
2013-02-25 04:09:00,34.5,23.5,30.17,North,0,0.0,-999.0,64,0.00,Cloudy,,0.00,Open2300\PHP-WU,2013-02-25 09:09:00,
2013-02-25 04:15:00,34.3,23.4,30.17,South,180,0.0,-999.0,64,0.00,Sunny,,0.00,Open2300\PHP-WU,2013-02-25 09:15:00,
2013-02-25 04:21:00,34.3,23.4,30.17,North,0,0.0,-999.0,64,0.00,Sunny,,0.00,Open2300\PHP-WU,2013-02-25 09:21:00,
2013-02-25 04:27:00,34.3,23.4,30.18,WNW,292,0.0,-999.0,64,0.00,Sunny,,0.00,Open2300\PHP-WU,2013-02-25 09:27:00,
2013-02-25 04:33:00,34.3,23.4,30.18,North,0,0.0,-999.0,64,0.00,Sunny,,0.00,Open2300\PHP-WU,2013-02-25 09:33:00,
2013-02-25 04:39:00,34.3,23.4,30.19,NNE,22,0.0,-999.0,64,0.00,Sunny,,0.00,Open2300\PHP-WU,2013-02-25 09:39:00,
2013-02-25 04:45:00,34.2,23.2,30.19,NNW,337,4.3,-999.0,64,0.00,Sunny,,0.00,Open2300\PHP-WU,2013-02-25 09:45:00,
2013-02-25 04:51:00,34.0,23.0,30.19,NNW,337,0.0,-999.0,64,0.00,Sunny,,0.00,Open2300\PHP-WU,2013-02-25 09:51:00,
2013-02-25 04:57:00,34.0,23.0,30.20,NNE,22,0.0,-999.0,64,0.00,Sunny,,0.00,Open2300\PHP-WU,2013-02-25 09:57:00,
2013-02-25 05:03:00,34.0,23.0,30.20,North,0,0.0,-999.0,64,0.00,Sunny,,0.00,Open2300\PHP-WU,2013-02-25 10:03:00,
2013-02-25 05:09:00,33.6,23.0,30.20,NE,45,2.5,-999.0,65,0.00,Sunny,,0.00,Open2300\PHP-WU,2013-02-25 10:09:00,
2013-02-25 05:15:00,33.6,23.0,30.20,NE,45,0.0,-999.0,65,0.00,Sunny,,0.00,Open2300\PHP-WU,2013-02-25 10:15:00,
2013-02-25 05:21:00,33.6,23.0,30.20,NNW,337,2.0,-999.0,65,0.00,Sunny,,0.00,Open2300\PHP-WU,2013-02-25 10:21:00,
2013-02-25 05:27:00,33.6,23.0,30.20,SE,135,0.0,-999.0,65,0.00,Sunny,,0.00,Open2300\PHP-WU,2013-02-25 10:27:00,
2013-02-25 05:33:00,33.6,22.7,30.20,NNW,337,0.0,-999.0,64,0.00,Sunny,,0.00,Open2300\PHP-WU,2013-02-25 10:33:00,
2013-02-25 05:39:00,33.4,22.9,30.21,North,0,0.0,-999.0,65,0.00,Sunny,,0.00,Open2300\PHP-WU,2013-02-25 10:39:00,
2013-02-25 05:45:00,33.4,22.9,30.21,North,0,0.0,-999.0,65,0.00,Sunny,,0.00,Open2300\PHP-WU,2013-02-25 10:45:00,
2013-02-25 05:51:00,33.1,22.5,30.22,ENE,67,0.0,-999.0,65,0.00,Sunny,,0.00,Open2300\PHP-WU,2013-02-25 10:51:00,
2013-02-25 05:57:00,33.1,22.5,30.22,East,90,0.0,-999.0,65,0.00,Sunny,,0.00,Open2300\PHP-WU,2013-02-25 10:57:00,
2013-02-25 06:03:00,33.1,22.5,30.22,NNE,22,0.0,-999.0,65,0.00,Sunny,,0.00,Open2300\PHP-WU,2013-02-25 11:03:00,
2013-02-25 06:09:00,32.9,22.4,30.22,North,0,0.0,-999.0,65,0.00,Sunny,,0.00,Open2300\PHP-WU,2013-02-25 11:09:00,
2013-02-25 06:15:00,33.1,22.5,30.22,ENE,67,0.0,-999.0,65,0.00,Sunny,,0.00,Open2300\PHP-WU,2013-02-25 11:15:00,
2013-02-25 06:21:00,32.9,22.4,30.23,SE,135,0.0,-999.0,65,0.00,Sunny,,0.00,Open2300\PHP-WU,2013-02-25 11:21:00,
2013-02-25 06:27:00,32.9,22.0,30.23,NNE,22,0.0,-999.0,64,0.00,Sunny,,0.00,Open2300\PHP-WU,2013-02-25 11:27:00,
2013-02-25 06:33:00,32.7,21.8,30.23,NE,45,0.0,-999.0,64,0.00,Sunny,,0.00,Open2300\PHP-WU,2013-02-25 11:33:00,
2013-02-25 06:39:00,32.7,21.8,30.23,North,0,6.9,-999.0,64,0.00,Sunny,,0.00,Open2300\PHP-WU,2013-02-25 11:39:00,
2013-02-25 06:45:00,32.7,21.8,30.22,ENE,67,0.7,-999.0,64,0.00,Sunny,,0.00,Open2300\PHP-WU,2013-02-25 11:45:00,
2013-02-25 06:51:00,32.5,21.7,30.22,North,0,0.0,-999.0,64,0.00,Sunny,,0.00,Open2300\PHP-WU,2013-02-25 11:51:00,
2013-02-25 06:57:00,32.5,21.7,30.23,NW,315,1.8,-999.0,64,0.00,Sunny,,0.00,Open2300\PHP-WU,2013-02-25 11:57:00,
2013-02-25 07:03:00,32.4,21.2,30.23,NE,45,0.0,-999.0,63,0.00,Sunny,,0.00,Open2300\PHP-WU,2013-02-25 12:03:00,
2013-02-25 07:09:00,32.4,21.2,30.22,NNW,337,0.0,-999.0,63,0.00,Sunny,,0.00,Open2300\PHP-WU,2013-02-25 12:09:00,
2013-02-25 07:15:00,32.5,21.0,30.23,NNE,22,0.0,-999.0,62,0.00,Sunny,,0.00,Open2300\PHP-WU,2013-02-25 12:15:00,
2013-02-25 07:21:00,32.5,21.0,30.23,NNE,22,0.0,-999.0,62,0.00,Sunny,,0.00,Open2300\PHP-WU,2013-02-25 12:21:00,
2013-02-25 07:27:00,32.5,21.0,30.23,ESE,112,0.0,-999.0,62,0.00,Sunny,,0.00,Open2300\PHP-WU,2013-02-25 12:27:00,
2013-02-25 07:34:00,32.5,21.0,30.23,NE,45,0.0,-999.0,62,0.00,Sunny,,0.00,Open2300\PHP-WU,2013-02-25 12:34:00,
2013-02-25 07:40:00,32.5,21.0,30.23,NNE,22,0.0,-999.0,62,0.00,Sunny,,0.00,Open2300\PHP-WU,2013-02-25 12:40:00,
2013-02-25 07:48:00,32.7,21.1,30.24,ENE,67,0.0,-999.0,62,0.00,Sunny,,0.00,Open2300\PHP-WU,2013-02-25 12:48:00,
2013-02-25 07:54:00,32.9,20.9,30.24,NW,315,0.0,-999.0,61,0.00,Sunny,,0.00,Open2300\PHP-WU,2013-02-25 12:54:00,
2013-02-25 08:00:00,33.1,21.1,30.25,SSE,157,0.0,-999.0,61,0.00,Sunny,,0.00,Open2300\PHP-WU,2013-02-25 13:00:00,
2013-02-25 08:06:00,33.1,21.1,30.26,West,270,0.0,-999.0,61,0.00,Sunny,,0.00,Open2300\PHP-WU,2013-02-25 13:06:00,
2013-02-25 08:12:00,33.3,20.9,30.26,NNE,22,0.0,-999.0,60,0.00,Sunny,,0.00,Open2300\PHP-WU,2013-02-25 13:12:00,
2013-02-25 08:18:00,33.4,20.6,30.27,North,0,0.0,-999.0,59,0.00,Sunny,,0.00,Open2300\PHP-WU,2013-02-25 13:18:00,
2013-02-25 08:24:00,33.6,20.8,30.27,NNW,337,0.0,-999.0,59,0.00,Sunny,,0.00,Open2300\PHP-WU,2013-02-25 13:24:00,
2013-02-25 08:30:00,34.0,21.1,30.27,South,180,0.0,-999.0,59,0.00,Sunny,,0.00,Open2300\PHP-WU,2013-02-25 13:30:00,
2013-02-25 08:36:00,34.2,21.3,30.28,NNE,22,0.0,-999.0,59,0.00,Sunny,,0.00,Open2300\PHP-WU,2013-02-25 13:36:00,
2013-02-25 08:42:00,34.3,21.1,30.27,SW,225,3.1,-999.0,58,0.00,Sunny,,0.00,Open2300\PHP-WU,2013-02-25 13:42:00,
2013-02-25 08:48:00,34.7,21.4,30.28,NE,45,0.0,-999.0,58,0.00,Sunny,,0.00,Open2300\PHP-WU,2013-02-25 13:48:00,
2013-02-25 08:54:00,34.9,21.6,30.28,NE,45,0.0,-999.0,58,0.00,Sunny,,0.00,Open2300\PHP-WU,2013-02-25 13:54:00,
2013-02-25 09:00:00,35.4,21.7,30.27,NNE,22,0.0,-999.0,57,0.00,Sunny,,0.00,Open2300\PHP-WU,2013-02-25 14:00:00,
2013-02-25 09:06:00,35.4,21.3,30.28,NNE,22,0.0,-999.0,56,0.00,Sunny,,0.00,Open2300\PHP-WU,2013-02-25 14:06:00,
2013-02-25 09:14:00,35.8,21.2,30.28,NNE,22,0.0,-999.0,55,0.00,Sunny,,0.00,Open2300\PHP-WU,2013-02-25 14:14:00,
2013-02-25 09:20:00,36.1,21.5,30.28,NE,45,0.0,-999.0,55,0.00,Sunny,,0.00,Open2300\PHP-WU,2013-02-25 14:20:00,
2013-02-25 09:26:00,36.1,21.1,30.29,North,0,0.0,-999.0,54,0.00,Sunny,,0.00,Open2300\PHP-WU,2013-02-25 14:26:00,
2013-02-25 09:32:00,36.7,21.6,30.29,North,0,0.0,-999.0,53,0.00,Sunny,,0.00,Open2300\PHP-WU,2013-02-25 14:32:00,
2013-02-25 09:38:00,37.0,21.5,30.29,North,0,0.0,-999.0,53,0.00,Sunny,,0.00,Open2300\PHP-WU,2013-02-25 14:38:00,
2013-02-25 09:44:00,37.2,21.2,30.29,ENE,67,0.0,-999.0,52,0.00,Sunny,,0.00,Open2300\PHP-WU,2013-02-25 14:44:00,
2013-02-25 09:50:00,37.2,20.8,30.29,NNW,337,0.0,-999.0,51,0.00,Sunny,,0.00,Open2300\PHP-WU,2013-02-25 14:50:00,
2013-02-25 09:56:00,37.2,21.2,30.29,North,0,8.3,-999.0,52,0.00,Sunny,,0.00,Open2300\PHP-WU,2013-02-25 14:56:00,
2013-02-25 10:02:00,37.4,21.3,30.30,North,0,1.6,-999.0,52,0.00,Sunny,,0.00,Open2300\PHP-WU,2013-02-25 15:02:00,
2013-02-25 10:08:00,38.1,22.0,30.30,NE,45,6.7,-999.0,52,0.00,Sunny,,0.00,Open2300\PHP-WU,2013-02-25 15:08:00,
2013-02-25 10:14:00,38.3,21.7,30.30,North,0,0.0,-999.0,51,0.00,Sunny,,0.00,Open2300\PHP-WU,2013-02-25 15:14:00,
2013-02-25 10:20:00,39.0,22.4,30.29,NE,45,0.0,-999.0,51,0.00,Sunny,,0.00,Open2300\PHP-WU,2013-02-25 15:20:00,
2013-02-25 10:26:00,39.6,22.4,30.29,NNW,337,0.0,-999.0,50,0.00,Sunny,,0.00,Open2300\PHP-WU,2013-02-25 15:26:00,
2013-02-25 10:32:00,39.6,22.4,30.29,South,180,0.0,-999.0,50,0.00,Sunny,,0.00,Open2300\PHP-WU,2013-02-25 15:32:00,
2013-02-25 10:38:00,39.0,21.4,30.29,NNW,337,0.0,-999.0,49,0.00,Sunny,,0.00,Open2300\PHP-WU,2013-02-25 15:38:00,
2013-02-25 10:44:00,39.2,21.6,30.28,North,0,0.0,-999.0,49,0.00,Sunny,,0.00,Open2300\PHP-WU,2013-02-25 15:44:00,
2013-02-25 10:50:00,39.4,21.7,30.28,North,0,0.0,-999.0,49,0.00,Sunny,,0.00,Open2300\PHP-WU,2013-02-25 15:50:00,
2013-02-25 10:56:00,39.6,21.9,30.28,SSW,202,0.0,-999.0,49,0.00,Sunny,,0.00,Open2300\PHP-WU,2013-02-25 15:56:00,
2013-02-25 11:02:00,39.9,22.7,30.28,North,0,6.9,-999.0,49,0.00,Sunny,,0.00,Open2300\PHP-WU,2013-02-25 16:02:00,
2013-02-25 11:08:00,39.7,22.1,30.28,NW,315,0.0,-999.0,49,0.00,Sunny,,0.00,Open2300\PHP-WU,2013-02-25 16:08:00,
2013-02-25 11:14:00,40.1,21.9,30.28,North,0,2.9,-999.0,48,0.00,Sunny,,0.00,Open2300\PHP-WU,2013-02-25 16:14:00,
2013-02-25 11:20:00,40.3,22.6,30.27,NNE,22,0.0,-999.0,49,0.00,Sunny,,0.00,Open2300\PHP-WU,2013-02-25 16:20:00,
2013-02-25 11:26:00,40.6,22.9,30.27,SE,135,0.0,-999.0,49,0.00,Sunny,,0.00,Open2300\PHP-WU,2013-02-25 16:26:00,
2013-02-25 11:32:00,40.8,22.5,30.27,North,0,3.1,-999.0,48,0.00,Sunny,,0.00,Open2300\PHP-WU,2013-02-25 16:32:00,
2013-02-25 11:38:00,40.8,23.0,30.27,NW,315,0.0,-999.0,49,0.00,Sunny,,0.00,Open2300\PHP-WU,2013-02-25 16:38:00,
2013-02-25 11:43:00,40.8,22.5,30.27,North,0,2.5,-999.0,48,0.00,Sunny,,0.00,Open2300\PHP-WU,2013-02-25 16:43:00,
2013-02-25 11:50:00,41.2,22.3,30.27,NNE,22,2.0,-999.0,47,0.00,Sunny,,0.00,Open2300\PHP-WU,2013-02-25 16:50:00,
2013-02-25 11:56:00,41.2,22.8,30.26,North,0,0.0,-999.0,48,0.00,Sunny,,0.00,Open2300\PHP-WU,2013-02-25 16:56:00,
2013-02-25 12:02:00,41.5,22.7,30.26,NNW,337,0.0,-999.0,47,0.00,Sunny,,0.00,Open2300\PHP-WU,2013-02-25 17:02:00,
2013-02-25 12:07:00,41.7,23.4,30.26,NNE,22,0.0,-999.0,48,0.00,Sunny,,0.00,Open2300\PHP-WU,2013-02-25 17:07:00,
2013-02-25 12:13:00,41.9,23.0,30.25,North,0,2.5,-999.0,47,0.00,Sunny,,0.00,Open2300\PHP-WU,2013-02-25 17:13:00,
2013-02-25 12:20:00,41.5,22.7,30.25,NNE,22,6.9,-999.0,47,0.00,Sunny,,0.00,Open2300\PHP-WU,2013-02-25 17:20:00,
2013-02-25 12:26:00,41.5,22.7,30.25,NE,45,0.0,-999.0,47,0.00,Sunny,,0.00,Open2300\PHP-WU,2013-02-25 17:26:00,
2013-02-25 12:32:00,42.1,23.2,30.25,SSE,157,0.0,-999.0,47,0.00,Sunny,,0.00,Open2300\PHP-WU,2013-02-25 17:32:00,
2013-02-25 12:37:00,42.6,23.7,30.25,SSE,157,0.0,-999.0,47,0.00,Sunny,,0.00,Open2300\PHP-WU,2013-02-25 17:37:00,
2013-02-25 12:43:00,42.4,23.0,30.24,North,0,0.0,-999.0,46,0.00,Sunny,,0.00,Open2300\PHP-WU,2013-02-25 17:43:00,
2013-02-25 12:49:00,42.4,23.5,30.24,ESE,112,1.3,-999.0,47,0.00,Sunny,,0.00,Open2300\PHP-WU,2013-02-25 17:49:00,
2013-02-25 12:55:00,42.1,22.7,30.24,North,0,0.0,-999.0,46,0.00,Sunny,,0.00,Open2300\PHP-WU,2013-02-25 17:55:00,
2013-02-25 13:02:00,42.4,23.5,30.24,ESE,112,0.0,-999.0,47,0.00,Sunny,,0.00,Open2300\PHP-WU,2013-02-25 18:02:00,
2013-02-25 13:07:00,42.6,23.2,30.24,North,0,0.0,-999.0,46,0.00,Sunny,,0.00,Open2300\PHP-WU,2013-02-25 18:07:00,
2013-02-25 13:13:00,42.6,23.7,30.24,North,0,0.0,-999.0,47,0.00,Sunny,,0.00,Open2300\PHP-WU,2013-02-25 18:13:00,
2013-02-25 13:19:00,42.6,23.7,30.24,SE,135,0.0,-999.0,47,0.00,Sunny,,0.00,Open2300\PHP-WU,2013-02-25 18:19:00,
2013-02-25 13:25:00,42.4,23.0,30.24,NE,45,0.0,-999.0,46,0.00,Sunny,,0.00,Open2300\PHP-WU,2013-02-25 18:25:00,
2013-02-25 13:31:00,42.6,23.7,30.24,SSW,202,0.0,-999.0,47,0.00,Sunny,,0.00,Open2300\PHP-WU,2013-02-25 18:31:00,
2013-02-25 13:37:00,42.6,23.7,30.24,SSE,157,0.0,-999.0,47,0.00,Sunny,,0.00,Open2300\PHP-WU,2013-02-25 18:37:00,
2013-02-25 13:43:00,42.4,23.0,30.24,SE,135,0.0,-999.0,46,0.00,Sunny,,0.00,Open2300\PHP-WU,2013-02-25 18:43:00,
2013-02-25 13:49:00,42.6,23.7,30.24,NNW,337,0.0,-999.0,47,0.00,Sunny,,0.00,Open2300\PHP-WU,2013-02-25 18:49:00,
2013-02-25 13:55:00,42.4,23.0,30.24,North,0,0.0,-999.0,46,0.00,Sunny,,0.00,Open2300\PHP-WU,2013-02-25 18:55:00,
2013-02-25 14:01:00,42.4,23.0,30.24,North,0,0.0,-999.0,46,0.00,Sunny,,0.00,Open2300\PHP-WU,2013-02-25 19:01:00,
2013-02-25 14:07:00,42.6,23.7,30.24,SW,225,0.0,-999.0,47,0.00,Sunny,,0.00,Open2300\PHP-WU,2013-02-25 19:07:00,
2013-02-25 14:13:00,42.6,24.3,30.23,ESE,112,0.0,-999.0,48,0.00,Sunny,,0.00,Open2300\PHP-WU,2013-02-25 19:13:00,
2013-02-25 14:19:00,42.4,23.5,30.23,NE,45,0.0,-999.0,47,0.00,Sunny,,0.00,Open2300\PHP-WU,2013-02-25 19:19:00,
2013-02-25 14:25:00,42.4,23.5,30.23,NNE,22,0.0,-999.0,47,0.00,Sunny,,0.00,Open2300\PHP-WU,2013-02-25 19:25:00,
2013-02-25 14:31:00,42.4,24.1,30.22,SE,135,0.0,-999.0,48,0.00,Sunny,,0.00,Open2300\PHP-WU,2013-02-25 19:31:00,
2013-02-25 14:37:00,42.4,23.5,30.22,North,0,0.0,-999.0,47,0.00,Sunny,,0.00,Open2300\PHP-WU,2013-02-25 19:37:00,
2013-02-25 14:43:00,42.3,23.4,30.22,NE,45,0.0,-999.0,47,0.00,Sunny,,0.00,Open2300\PHP-WU,2013-02-25 19:43:00,
2013-02-25 14:49:00,42.1,23.7,30.22,ESE,112,0.0,-999.0,48,0.00,Sunny,,0.00,Open2300\PHP-WU,2013-02-25 19:49:00,
2013-02-25 14:55:00,42.1,23.7,30.22,South,180,0.0,-999.0,48,0.00,Sunny,,0.00,Open2300\PHP-WU,2013-02-25 19:55:00,
2013-02-25 15:01:00,42.1,23.7,30.22,SSE,157,0.0,-999.0,48,0.00,Sunny,,0.00,Open2300\PHP-WU,2013-02-25 20:01:00,
2013-02-25 15:07:00,42.1,23.7,30.22,ENE,67,0.0,-999.0,48,0.00,Sunny,,0.00,Open2300\PHP-WU,2013-02-25 20:07:00,
2013-02-25 15:13:00,42.1,23.7,30.22,NNW,337,0.0,-999.0,48,0.00,Sunny,,0.00,Open2300\PHP-WU,2013-02-25 20:13:00,
2013-02-25 15:19:00,41.9,23.6,30.22,NE,45,0.0,-999.0,48,0.00,Sunny,,0.00,Open2300\PHP-WU,2013-02-25 20:19:00,
2013-02-25 15:25:00,41.7,23.4,30.22,SSW,202,0.0,-999.0,48,0.00,Sunny,,0.00,Open2300\PHP-WU,2013-02-25 20:25:00,
2013-02-25 15:31:00,41.7,23.4,30.21,NNW,337,0.0,-999.0,48,0.00,Sunny,,0.00,Open2300\PHP-WU,2013-02-25 20:31:00,
2013-02-25 15:37:00,41.5,23.2,30.20,NNE,22,0.0,-999.0,48,0.00,Sunny,,0.00,Open2300\PHP-WU,2013-02-25 20:37:00,
2013-02-25 15:43:00,41.5,23.2,30.21,NNE,22,0.0,-999.0,48,0.00,Sunny,,0.00,Open2300\PHP-WU,2013-02-25 20:43:00,
2013-02-25 15:49:00,41.5,23.2,30.22,ENE,67,0.0,-999.0,48,0.00,Sunny,,0.00,Open2300\PHP-WU,2013-02-25 20:49:00,
2013-02-25 15:55:00,41.4,23.5,30.20,SSE,157,0.0,-999.0,49,0.00,Sunny,,0.00,Open2300\PHP-WU,2013-02-25 20:55:00,
2013-02-25 16:01:00,41.2,23.4,30.21,NE,45,0.0,-999.0,49,0.00,Sunny,,0.00,Open2300\PHP-WU,2013-02-25 21:01:00,
2013-02-25 16:07:00,41.2,23.4,30.21,South,180,0.0,-999.0,49,0.00,Sunny,,0.00,Open2300\PHP-WU,2013-02-25 21:07:00,
2013-02-25 16:13:00,40.8,23.0,30.21,SW,225,0.0,-999.0,49,0.00,Sunny,,0.00,Open2300\PHP-WU,2013-02-25 21:13:00,
2013-02-25 16:19:00,40.8,23.0,30.22,SSE,157,0.0,-999.0,49,0.00,Sunny,,0.00,Open2300\PHP-WU,2013-02-25 21:19:00,
2013-02-25 16:25:00,40.8,23.0,30.22,NNE,22,0.0,-999.0,49,0.00,Sunny,,0.00,Open2300\PHP-WU,2013-02-25 21:25:00,
2013-02-25 16:31:00,40.8,23.0,30.22,North,0,0.0,-999.0,49,0.00,Sunny,,0.00,Open2300\PHP-WU,2013-02-25 21:31:00,
2013-02-25 16:37:00,40.6,23.4,30.22,North,0,0.0,-999.0,50,0.00,Sunny,,0.00,Open2300\PHP-WU,2013-02-25 21:37:00,
2013-02-25 16:43:00,40.5,23.2,30.22,North,0,0.0,-999.0,50,0.00,Sunny,,0.00,Open2300\PHP-WU,2013-02-25 21:43:00,
2013-02-25 16:49:00,40.5,23.2,30.22,North,0,0.0,-999.0,50,0.00,Sunny,,0.00,Open2300\PHP-WU,2013-02-25 21:49:00,
2013-02-25 16:55:00,40.3,23.5,30.21,NNE,22,0.0,-999.0,51,0.00,Sunny,,0.00,Open2300\PHP-WU,2013-02-25 21:55:00,
2013-02-25 17:01:00,40.1,23.3,30.21,North,0,0.0,-999.0,51,0.00,Sunny,,0.00,Open2300\PHP-WU,2013-02-25 22:01:00,
2013-02-25 17:07:00,40.1,23.3,30.22,North,0,0.0,-999.0,51,0.00,Sunny,,0.00,Open2300\PHP-WU,2013-02-25 22:07:00,
2013-02-25 17:13:00,39.9,23.2,30.22,NNE,22,0.0,-999.0,51,0.00,Sunny,,0.00,Open2300\PHP-WU,2013-02-25 22:13:00,
2013-02-25 17:19:00,39.9,23.2,30.22,NNE,22,0.0,-999.0,51,0.00,Sunny,,0.00,Open2300\PHP-WU,2013-02-25 22:19:00,
2013-02-25 17:25:00,39.9,23.2,30.22,NE,45,0.0,-999.0,51,0.00,Sunny,,0.00,Open2300\PHP-WU,2013-02-25 22:25:00,
2013-02-25 17:31:00,39.7,23.5,30.22,NNE,22,0.0,-999.0,52,0.00,Sunny,,0.00,Open2300\PHP-WU,2013-02-25 22:31:00,
2013-02-25 17:37:00,39.7,23.5,30.21,ESE,112,0.0,-999.0,52,0.00,Sunny,,0.00,Open2300\PHP-WU,2013-02-25 22:37:00,
2013-02-25 17:43:00,39.4,23.1,30.22,North,0,0.0,-999.0,52,0.00,Sunny,,0.00,Open2300\PHP-WU,2013-02-25 22:43:00,
2013-02-25 17:49:00,39.4,23.6,30.22,North,0,0.0,-999.0,53,0.00,Sunny,,0.00,Open2300\PHP-WU,2013-02-25 22:49:00,
2013-02-25 17:55:00,39.0,23.2,30.22,North,0,0.0,-999.0,53,0.00,Sunny,,0.00,Open2300\PHP-WU,2013-02-25 22:55:00,
2013-02-25 18:01:00,38.7,22.9,30.22,North,0,0.0,-999.0,53,0.00,Sunny,,0.00,Open2300\PHP-WU,2013-02-25 23:01:00,
2013-02-25 18:07:00,38.3,23.0,30.22,North,0,0.0,-999.0,54,0.00,Sunny,,0.00,Open2300\PHP-WU,2013-02-25 23:07:00,
2013-02-25 18:13:00,37.9,22.7,30.23,NNE,22,0.0,-999.0,54,0.00,Sunny,,0.00,Open2300\PHP-WU,2013-02-25 23:13:00,
2013-02-25 18:19:00,37.8,23.0,30.22,NNE,22,0.0,-999.0,55,0.00,Sunny,,0.00,Open2300\PHP-WU,2013-02-25 23:19:00,
2013-02-25 18:25:00,37.6,22.8,30.22,NNE,22,0.0,-999.0,55,0.00,Sunny,,0.00,Open2300\PHP-WU,2013-02-25 23:25:00,
2013-02-25 18:31:00,37.6,22.8,30.22,NNE,22,0.0,-999.0,55,0.00,Sunny,,0.00,Open2300\PHP-WU,2013-02-25 23:31:00,
2013-02-25 18:37:00,37.6,23.2,30.22,North,0,0.0,-999.0,56,0.00,Sunny,,0.00,Open2300\PHP-WU,2013-02-25 23:37:00,
2013-02-25 18:43:00,37.2,22.9,30.22,North,0,0.0,-999.0,56,0.00,Sunny,,0.00,Open2300\PHP-WU,2013-02-25 23:43:00,
2013-02-25 18:49:00,37.2,22.9,30.23,NNW,337,0.0,-999.0,56,0.00,Sunny,,0.00,Open2300\PHP-WU,2013-02-25 23:49:00,
2013-02-25 18:55:00,37.0,22.7,30.23,NW,315,0.0,-999.0,56,0.00,Sunny,,0.00,Open2300\PHP-WU,2013-02-25 23:55:00,
2013-02-25 19:01:00,36.5,22.7,30.23,NW,315,0.0,-999.0,57,0.00,Sunny,,0.00,Open2300\PHP-WU,2013-02-26 00:01:00,
2013-02-25 19:07:00,36.3,22.5,30.23,NW,315,0.0,-999.0,57,0.00,Sunny,,0.00,Open2300\PHP-WU,2013-02-26 00:07:00,
2013-02-25 19:13:00,35.8,22.5,30.23,NW,315,0.0,-999.0,58,0.00,Sunny,,0.00,Open2300\PHP-WU,2013-02-26 00:13:00,
2013-02-25 19:19:00,35.2,22.4,30.23,NW,315,0.0,-999.0,59,0.00,Sunny,,0.00,Open2300\PHP-WU,2013-02-26 00:19:00,
2013-02-25 19:25:00,34.9,22.5,30.23,NW,315,0.0,-999.0,60,0.00,Sunny,,0.00,Open2300\PHP-WU,2013-02-26 00:25:00,
2013-02-25 19:32:00,34.5,22.1,30.24,NW,315,0.0,-999.0,60,0.00,Sunny,,0.00,Open2300\PHP-WU,2013-02-26 00:32:00,
2013-02-25 19:38:00,34.3,22.3,30.23,NW,315,0.0,-999.0,61,0.00,Sunny,,0.00,Open2300\PHP-WU,2013-02-26 00:38:00,
2013-02-25 19:44:00,34.3,22.3,30.24,NW,315,0.0,-999.0,61,0.00,Sunny,,0.00,Open2300\PHP-WU,2013-02-26 00:44:00,
2013-02-25 19:50:00,34.3,22.6,30.24,NW,315,0.0,-999.0,62,0.00,Sunny,,0.00,Open2300\PHP-WU,2013-02-26 00:50:00,
2013-02-25 19:56:00,34.3,22.6,30.24,North,0,0.0,-999.0,62,0.00,Sunny,,0.00,Open2300\PHP-WU,2013-02-26 00:56:00,
2013-02-25 20:02:00,34.2,22.8,30.24,North,0,0.0,-999.0,63,0.00,Sunny,,0.00,Open2300\PHP-WU,2013-02-26 01:02:00,
2013-02-25 20:08:00,33.6,22.3,30.24,North,0,0.0,-999.0,63,0.00,Sunny,,0.00,Open2300\PHP-WU,2013-02-26 01:08:00,
2013-02-25 20:14:00,33.3,22.3,30.25,North,0,0.0,-999.0,64,0.00,Sunny,,0.00,Open2300\PHP-WU,2013-02-26 01:14:00,
2013-02-25 20:20:00,32.7,22.2,30.24,North,0,0.0,-999.0,65,0.00,Sunny,,0.00,Open2300\PHP-WU,2013-02-26 01:20:00,
2013-02-25 20:26:00,32.7,22.2,30.24,North,0,0.0,-999.0,65,0.00,Sunny,,0.00,Open2300\PHP-WU,2013-02-26 01:26:00,
2013-02-25 20:32:00,32.7,22.6,30.24,North,0,0.0,-999.0,66,0.00,Sunny,,0.00,Open2300\PHP-WU,2013-02-26 01:32:00,
2013-02-25 20:38:00,32.5,22.4,30.24,North,0,0.0,-999.0,66,0.00,Sunny,,0.00,Open2300\PHP-WU,2013-02-26 01:38:00,
2013-02-25 20:44:00,32.5,22.4,30.24,North,0,0.0,-999.0,66,0.00,Sunny,,0.00,Open2300\PHP-WU,2013-02-26 01:44:00,
2013-02-25 20:50:00,32.4,22.6,30.24,North,0,0.0,-999.0,67,0.00,Sunny,,0.00,Open2300\PHP-WU,2013-02-26 01:50:00,
2013-02-25 20:56:00,32.2,22.4,30.24,North,0,0.0,-999.0,67,0.00,Sunny,,0.00,Open2300\PHP-WU,2013-02-26 01:56:00,
2013-02-25 21:02:00,31.8,22.1,30.24,North,0,0.0,-999.0,67,0.00,Sunny,,0.00,Open2300\PHP-WU,2013-02-26 02:02:00,
2013-02-25 21:08:00,31.6,22.3,30.25,North,0,0.0,-999.0,68,0.00,Sunny,,0.00,Open2300\PHP-WU,2013-02-26 02:08:00,
2013-02-25 21:14:00,31.3,22.3,30.24,North,0,0.0,-999.0,69,0.00,Sunny,,0.00,Open2300\PHP-WU,2013-02-26 02:14:00,
2013-02-25 21:20:00,31.1,22.5,30.23,North,0,0.0,-999.0,70,0.00,Sunny,,0.00,Open2300\PHP-WU,2013-02-26 02:20:00,
2013-02-25 21:26:00,31.1,22.5,30.23,North,0,0.0,-999.0,70,0.00,Sunny,,0.00,Open2300\PHP-WU,2013-02-26 02:26:00,
2013-02-25 21:32:00,31.1,22.8,30.24,North,0,0.0,-999.0,71,0.00,Sunny,,0.00,Open2300\PHP-WU,2013-02-26 02:32:00,
2013-02-25 21:38:00,31.1,22.8,30.24,North,0,0.0,-999.0,71,0.00,Sunny,,0.00,Open2300\PHP-WU,2013-02-26 02:38:00,
2013-02-25 21:44:00,31.1,22.8,30.24,North,0,0.0,-999.0,71,0.00,Sunny,,0.00,Open2300\PHP-WU,2013-02-26 02:44:00,
2013-02-25 21:50:00,30.9,22.6,30.23,North,0,0.0,-999.0,71,0.00,Sunny,,0.00,Open2300\PHP-WU,2013-02-26 02:50:00,
2013-02-25 21:56:00,30.9,22.6,30.23,North,0,0.0,-999.0,71,0.00,Sunny,,0.00,Open2300\PHP-WU,2013-02-26 02:56:00,
2013-02-25 22:02:00,30.9,22.6,30.22,North,0,0.0,-999.0,71,0.00,Sunny,,0.00,Open2300\PHP-WU,2013-02-26 03:02:00,
2013-02-25 22:08:00,31.1,22.8,30.23,North,0,0.0,-999.0,71,0.00,Sunny,,0.00,Open2300\PHP-WU,2013-02-26 03:08:00,
2013-02-25 22:14:00,31.1,22.8,30.23,North,0,0.0,-999.0,71,0.00,Sunny,,0.00,Open2300\PHP-WU,2013-02-26 03:14:00,
2013-02-25 22:20:00,32.2,23.5,30.23,North,0,0.0,-999.0,70,0.00,Sunny,,0.00,Open2300\PHP-WU,2013-02-26 03:20:00,
2013-02-25 22:26:00,32.5,23.8,30.22,North,0,0.0,-999.0,70,0.00,Sunny,,0.00,Open2300\PHP-WU,2013-02-26 03:26:00,
2013-02-25 22:32:00,33.1,24.0,30.22,North,0,0.0,-999.0,69,0.00,Sunny,,0.00,Open2300\PHP-WU,2013-02-26 03:32:00,
2013-02-25 22:38:00,33.4,23.9,30.22,North,0,0.0,-999.0,68,0.00,Sunny,,0.00,Open2300\PHP-WU,2013-02-26 03:38:00,
2013-02-25 22:44:00,33.6,24.1,30.21,NE,45,0.0,-999.0,68,0.00,Sunny,,0.00,Open2300\PHP-WU,2013-02-26 03:44:00,
2013-02-25 22:50:00,34.0,24.1,30.20,NNW,337,0.0,-999.0,67,0.00,Sunny,,0.00,Open2300\PHP-WU,2013-02-26 03:50:00,
2013-02-25 22:56:00,34.2,24.3,30.21,North,0,0.0,-999.0,67,0.00,Sunny,,0.00,Open2300\PHP-WU,2013-02-26 03:56:00,
2013-02-25 23:02:00,34.0,23.7,30.21,North,0,0.0,-999.0,66,0.00,Sunny,,0.00,Open2300\PHP-WU,2013-02-26 04:02:00,
2013-02-25 23:08:00,34.2,23.9,30.21,NE,45,0.0,-999.0,66,0.00,Sunny,,0.00,Open2300\PHP-WU,2013-02-26 04:08:00,
2013-02-25 23:14:00,34.3,24.1,30.21,NNE,22,0.0,-999.0,66,0.00,Sunny,,0.00,Open2300\PHP-WU,2013-02-26 04:14:00,
2013-02-25 23:20:00,34.3,24.1,30.20,NNW,337,0.0,-999.0,66,0.00,Sunny,,0.00,Open2300\PHP-WU,2013-02-26 04:20:00,
2013-02-25 23:26:00,34.3,24.1,30.20,NNE,22,0.0,-999.0,66,0.00,Sunny,,0.00,Open2300\PHP-WU,2013-02-26 04:26:00,
2013-02-25 23:32:00,34.3,24.1,30.20,ESE,112,0.0,-999.0,66,0.00,Sunny,,0.00,Open2300\PHP-WU,2013-02-26 04:32:00,
2013-02-25 23:38:00,34.3,24.1,30.21,NNE,22,0.0,-999.0,66,0.00,Sunny,,0.00,Open2300\PHP-WU,2013-02-26 04:38:00,
2013-02-25 23:44:00,34.3,24.1,30.22,NNE,22,0.0,-999.0,66,0.00,Sunny,,0.00,Open2300\PHP-WU,2013-02-26 04:44:00,
2013-02-25 23:49:00,34.2,23.9,30.21,NNE,22,0.0,-999.0,66,0.00,Sunny,,0.00,Open2300\PHP-WU,2013-02-26 04:49:00,
2013-02-25 23:56:00,34.3,24.1,30.21,NNE,22,0.0,-999.0,66,0.00,Sunny,,0.00,Open2300\PHP-WU,2013-02-26 04:56:00,